Corumba de Goias, Brazil
Current Conditions -  °F | °C
As of 7:00 PM on Monday 24 Nov 2014 (Local Time) from SBAN Reporting Station
Few Clouds Few Clouds  
Wind Chill: 77°   Ceiling: Unl
Heat Index: 79°   Visibility: 6mi
Dew Point: 61°   Wind: 5mph
Humidity: 57%   Direction: 280°W
Pressure: 30"   Gusts: NA
Location:  15.92°S, 48.81°W
Report Text: SBAN 242100Z 28004KT 9999 FEW030 FEW040TCU 25/16 Q1016
Loading
Personal Weather Stations






























Interactive Weather Map New forecast layout! Learn more

10-Day Weather Forecast

Advertisements
Track Severe Weather on mobile